createdAt,value
2018-03-23T00:00:39.882Z,18.61
2018-03-23T00:01:39.828Z,18.6
2018-03-23T00:02:39.864Z,18.54
2018-03-23T00:03:39.824Z,18.6
2018-03-23T00:04:39.853Z,18.56
2018-03-23T00:05:39.822Z,18.54
2018-03-23T00:06:39.827Z,18.61
2018-03-23T00:07:40.100Z,18.56
2018-03-23T00:08:39.872Z,18.51
2018-03-23T00:09:39.812Z,18.55
2018-03-23T00:10:39.815Z,18.54
2018-03-23T00:11:39.836Z,18.54
2018-03-23T00:12:39.841Z,18.55
2018-03-23T00:13:39.828Z,18.55
2018-03-23T00:14:39.930Z,18.52
2018-03-23T00:15:39.844Z,18.55
2018-03-23T00:16:39.844Z,18.51
2018-03-23T00:17:39.860Z,18.53
2018-03-23T00:18:39.839Z,18.55
2018-03-23T00:19:39.841Z,18.51
2018-03-23T00:20:39.810Z,18.47
2018-03-23T00:21:39.832Z,18.53
2018-03-23T00:22:39.834Z,18.49
2018-03-23T00:23:39.823Z,18.52
2018-03-23T00:24:39.789Z,18.54
2018-03-23T00:25:39.798Z,18.52
2018-03-23T00:26:39.801Z,18.51
2018-03-23T00:27:39.821Z,18.57
2018-03-23T00:28:39.797Z,18.5
2018-03-23T00:29:39.827Z,18.48
2018-03-23T00:30:39.831Z,18.52
2018-03-23T00:31:40.077Z,18.47
2018-03-23T00:32:39.807Z,18.49
2018-03-23T00:33:39.842Z,18.53
2018-03-23T00:34:39.832Z,18.47
2018-03-23T00:35:39.790Z,18.48
2018-03-23T00:36:39.819Z,18.53
2018-03-23T00:37:39.806Z,18.47
2018-03-23T00:38:39.800Z,18.44
2018-03-23T00:39:39.785Z,18.54
2018-03-23T00:40:39.795Z,18.48
2018-03-23T00:41:39.861Z,18.46
2018-03-23T00:42:39.836Z,18.51
2018-03-23T00:43:39.796Z,18.46
2018-03-23T00:44:39.813Z,18.43
2018-03-23T00:45:39.811Z,18.46
2018-03-23T00:46:39.828Z,18.46
2018-03-23T00:47:39.863Z,18.45
2018-03-23T00:48:39.821Z,18.48
2018-03-23T00:49:39.836Z,18.44
2018-03-23T00:50:39.835Z,18.42
2018-03-23T00:51:39.841Z,18.42
2018-03-23T00:52:39.850Z,18.42
2018-03-23T00:53:39.805Z,18.41
2018-03-23T00:54:39.817Z,18.47
2018-03-23T00:55:39.796Z,18.41
2018-03-23T00:56:39.821Z,18.37
2018-03-23T00:57:39.802Z,18.42
2018-03-23T00:58:39.813Z,18.34
2018-03-23T00:59:39.858Z,18.35
2018-03-23T01:00:39.820Z,18.36
2018-03-23T01:01:39.868Z,18.33
2018-03-23T01:02:39.800Z,18.38
2018-03-23T01:03:39.830Z,18.43
2018-03-23T01:04:39.776Z,18.4
2018-03-23T01:05:39.815Z,18.42
2018-03-23T01:06:39.832Z,18.44
2018-03-23T01:07:39.799Z,18.41
2018-03-23T01:08:39.842Z,18.37
2018-03-23T01:09:39.815Z,18.39
2018-03-23T01:10:39.833Z,18.35
2018-03-23T01:11:39.814Z,18.39
2018-03-23T01:12:39.834Z,18.46
2018-03-23T01:13:39.838Z,18.37
2018-03-23T01:14:39.813Z,18.38
2018-03-23T01:15:39.762Z,18.42
2018-03-23T01:16:39.809Z,18.35
2018-03-23T01:17:39.789Z,18.36
2018-03-23T01:18:39.797Z,18.41
2018-03-23T01:19:39.796Z,18.39
2018-03-23T01:20:39.801Z,18.36
2018-03-23T01:21:39.802Z,18.41
2018-03-23T01:22:39.834Z,18.36
2018-03-23T01:23:39.796Z,18.37
2018-03-23T01:24:39.791Z,18.39
2018-03-23T01:25:39.820Z,18.39
2018-03-23T01:26:39.805Z,18.35
2018-03-23T01:27:39.853Z,18.36
2018-03-23T01:28:39.780Z,18.34
2018-03-23T01:29:39.803Z,18.34
2018-03-23T01:30:39.789Z,18.38
2018-03-23T01:31:39.793Z,18.34
2018-03-23T01:32:39.811Z,18.33
2018-03-23T01:33:39.817Z,18.41
2018-03-23T01:34:39.784Z,18.34
2018-03-23T01:35:39.825Z,18.31
2018-03-23T01:36:39.773Z,18.36
2018-03-23T01:37:39.845Z,18.34
2018-03-23T01:38:39.806Z,18.3
2018-03-23T01:39:39.790Z,18.35
2018-03-23T01:40:39.805Z,18.32
2018-03-23T01:41:39.796Z,18.3
2018-03-23T01:42:39.812Z,18.35
2018-03-23T01:43:39.799Z,18.32
2018-03-23T01:44:39.794Z,18.33
2018-03-23T01:45:39.797Z,18.37
2018-03-23T01:46:39.797Z,18.31
2018-03-23T01:47:39.774Z,18.32
2018-03-23T01:48:39.778Z,18.33
2018-03-23T01:49:39.798Z,18.27
2018-03-23T01:50:39.798Z,18.26
2018-03-23T01:51:39.801Z,18.31
2018-03-23T01:52:39.784Z,18.28
2018-03-23T01:53:39.801Z,18.27
2018-03-23T01:54:39.774Z,18.29
2018-03-23T01:55:40.025Z,18.28
2018-03-23T01:56:39.799Z,18.25
2018-03-23T01:57:39.794Z,18.31
2018-03-23T01:58:39.774Z,18.29
2018-03-23T01:59:39.773Z,18.29
2018-03-23T02:00:39.825Z,18.3
2018-03-23T02:01:39.797Z,18.23
2018-03-23T02:02:39.804Z,18.26
2018-03-23T02:03:39.773Z,18.33
2018-03-23T02:04:39.804Z,18.24
2018-03-23T02:05:39.788Z,18.23
2018-03-23T02:06:39.855Z,18.3
2018-03-23T02:07:39.809Z,18.25
2018-03-23T02:08:39.767Z,18.24
2018-03-23T02:09:39.773Z,18.29
2018-03-23T02:10:39.779Z,18.23
2018-03-23T02:11:39.767Z,18.23
2018-03-23T02:12:39.780Z,18.29
2018-03-23T02:13:39.806Z,18.23
2018-03-23T02:14:39.974Z,18.23
2018-03-23T02:15:39.892Z,18.26
2018-03-23T02:16:39.783Z,18.22
2018-03-23T02:17:39.789Z,18.23
2018-03-23T02:18:39.778Z,18.26
2018-03-23T02:19:39.759Z,18.22
2018-03-23T02:20:39.799Z,18.19
2018-03-23T02:21:39.790Z,18.24
2018-03-23T02:22:39.769Z,18.23
2018-03-23T02:23:39.799Z,18.22
2018-03-23T02:24:39.778Z,18.27
2018-03-23T02:25:39.767Z,18.23
2018-03-23T02:26:39.766Z,18.22
2018-03-23T02:27:39.787Z,18.25
2018-03-23T02:28:39.770Z,18.17
2018-03-23T02:29:39.743Z,18.2
2018-03-23T02:30:39.853Z,18.26
2018-03-23T02:31:39.777Z,18.21
2018-03-23T02:32:39.786Z,18.21
2018-03-23T02:33:39.800Z,18.23
2018-03-23T02:34:39.806Z,18.22
2018-03-23T02:35:39.806Z,18.22
2018-03-23T02:36:39.781Z,18.25
2018-03-23T02:37:39.792Z,18.17
2018-03-23T02:38:39.804Z,18.17
2018-03-23T02:39:39.815Z,18.23
2018-03-23T02:40:39.819Z,18.17
2018-03-23T02:41:39.813Z,18.17
2018-03-23T02:42:39.812Z,18.2
2018-03-23T02:43:39.810Z,18.14
2018-03-23T02:44:39.824Z,18.13
2018-03-23T02:45:39.786Z,18.19
2018-03-23T02:46:39.796Z,18.12
2018-03-23T02:47:39.796Z,18.15
2018-03-23T02:48:39.800Z,18.19
2018-03-23T02:49:39.823Z,18.16
2018-03-23T02:50:39.809Z,18.14
2018-03-23T02:51:39.790Z,18.18
2018-03-23T02:52:39.800Z,18.17
2018-03-23T02:53:39.815Z,18.15
2018-03-23T02:54:39.798Z,18.2
2018-03-23T02:55:39.788Z,18.14
2018-03-23T02:56:39.769Z,18.12
2018-03-23T02:57:39.784Z,18.17
2018-03-23T02:58:39.778Z,18.14
2018-03-23T02:59:39.832Z,18.13
2018-03-23T03:00:39.774Z,18.14
2018-03-23T03:01:39.773Z,18.08
2018-03-23T03:02:39.779Z,18.12
2018-03-23T03:03:39.746Z,18.17
2018-03-23T03:04:39.843Z,18.15
2018-03-23T03:05:39.784Z,18.13
2018-03-23T03:06:39.788Z,18.2
2018-03-23T03:07:39.794Z,18.12
2018-03-23T03:08:39.767Z,18.11
2018-03-23T03:09:39.800Z,18.17
2018-03-23T03:10:39.781Z,18.1
2018-03-23T03:11:39.829Z,18.06
2018-03-23T03:12:39.785Z,18.14
2018-03-23T03:13:39.770Z,18.11
2018-03-23T03:14:39.785Z,18.11
2018-03-23T03:15:39.833Z,18.12
2018-03-23T03:16:39.767Z,18.07
2018-03-23T03:17:39.758Z,18.04
2018-03-23T03:18:39.776Z,18.1
2018-03-23T03:19:39.774Z,18.07
2018-03-23T03:20:39.771Z,18.07
2018-03-23T03:21:39.616Z,18.1
2018-03-23T03:22:39.774Z,18.07
2018-03-23T03:23:39.762Z,18.09
2018-03-23T03:24:39.777Z,18.14
2018-03-23T03:25:39.922Z,18.11
2018-03-23T03:26:39.761Z,18.08
2018-03-23T03:27:39.788Z,18.13
2018-03-23T03:28:39.763Z,18.05
2018-03-23T03:29:39.757Z,18.03
2018-03-23T03:30:39.786Z,18.08
2018-03-23T03:31:39.801Z,18.07
2018-03-23T03:32:39.741Z,18.08
2018-03-23T03:33:39.741Z,18.13
2018-03-23T03:34:39.770Z,18.08
2018-03-23T03:35:39.788Z,18.08
2018-03-23T03:36:39.722Z,18.09
2018-03-23T03:37:39.768Z,18.04
2018-03-23T03:38:39.791Z,18.01
2018-03-23T03:39:39.742Z,18.09
2018-03-23T03:40:39.759Z,18.04
2018-03-23T03:41:39.744Z,18.05
2018-03-23T03:42:39.751Z,18.1
2018-03-23T03:43:39.770Z,18.04
2018-03-23T03:44:39.738Z,18.05
2018-03-23T03:45:39.779Z,18.1
2018-03-23T03:46:39.785Z,18.04
2018-03-23T03:47:39.815Z,18.06
2018-03-23T03:48:39.734Z,18.07
2018-03-23T03:49:39.807Z,18.02
2018-03-23T03:50:39.779Z,18.01
2018-03-23T03:51:39.735Z,18.07
2018-03-23T03:52:39.734Z,18.05
2018-03-23T03:53:39.767Z,18.02
2018-03-23T03:54:39.755Z,18.11
2018-03-23T03:55:39.756Z,18.02
2018-03-23T03:56:39.729Z,18.01
2018-03-23T03:57:39.748Z,18.08
2018-03-23T03:58:39.758Z,18.01
2018-03-23T03:59:39.729Z,18
2018-03-23T04:00:39.757Z,18.06
2018-03-23T04:01:39.733Z,18.02
2018-03-23T04:02:39.774Z,18.02
2018-03-23T04:03:39.762Z,18.03
2018-03-23T04:04:39.739Z,17.97
2018-03-23T04:05:39.709Z,17.98
2018-03-23T04:06:39.746Z,18.05
2018-03-23T04:07:39.761Z,17.98
2018-03-23T04:08:39.961Z,17.99
2018-03-23T04:09:39.744Z,18.05
2018-03-23T04:10:39.763Z,18.04
2018-03-23T04:11:39.758Z,17.98
2018-03-23T04:12:39.797Z,18.04
2018-03-23T04:13:39.759Z,17.99
2018-03-23T04:14:39.748Z,17.98
2018-03-23T04:15:39.771Z,18.04
2018-03-23T04:16:39.838Z,17.98
2018-03-23T04:17:39.753Z,17.99
2018-03-23T04:18:39.734Z,18.03
2018-03-23T04:19:39.960Z,17.98
2018-03-23T04:20:39.749Z,17.96
2018-03-23T04:21:39.749Z,18.02
2018-03-23T04:22:39.750Z,18
2018-03-23T04:23:39.746Z,17.96
2018-03-23T04:24:39.733Z,18
2018-03-23T04:25:39.723Z,17.97
2018-03-23T04:26:39.698Z,17.92
2018-03-23T04:27:39.723Z,18.02
2018-03-23T04:28:39.740Z,17.96
2018-03-23T04:29:39.715Z,17.96
2018-03-23T04:30:39.762Z,18
2018-03-23T04:31:39.750Z,17.94
2018-03-23T04:32:39.734Z,17.93
2018-03-23T04:33:39.779Z,17.98
2018-03-23T04:34:39.743Z,17.92
2018-03-23T04:35:39.720Z,17.92
2018-03-23T04:36:39.779Z,17.96
2018-03-23T04:37:39.791Z,17.95
2018-03-23T04:38:39.732Z,17.94
2018-03-23T04:39:39.966Z,17.97
2018-03-23T04:40:39.725Z,17.94
2018-03-23T04:41:39.761Z,17.92
2018-03-23T04:42:39.751Z,18.01
2018-03-23T04:43:39.750Z,17.96
2018-03-23T04:44:39.740Z,17.94
2018-03-23T04:45:39.730Z,17.97
2018-03-23T04:46:39.748Z,17.91
2018-03-23T04:47:39.732Z,17.91
2018-03-23T04:48:39.713Z,17.98
2018-03-23T04:49:39.738Z,17.95
2018-03-23T04:50:39.737Z,17.9
2018-03-23T04:51:39.714Z,17.97
2018-03-23T04:52:39.756Z,17.89
2018-03-23T04:53:39.740Z,17.9
2018-03-23T04:54:39.746Z,17.95
2018-03-23T04:55:39.713Z,17.89
2018-03-23T04:56:39.741Z,17.88
2018-03-23T04:57:39.791Z,17.96
2018-03-23T04:58:39.721Z,17.93
2018-03-23T04:59:39.719Z,17.92
2018-03-23T05:00:39.717Z,17.97
2018-03-23T05:01:39.741Z,17.92
2018-03-23T05:02:39.703Z,17.91
2018-03-23T05:03:39.734Z,17.98
2018-03-23T05:04:39.770Z,17.94
2018-03-23T05:05:39.727Z,17.95
2018-03-23T05:06:39.773Z,18.01
2018-03-23T05:07:39.775Z,17.98
2018-03-23T05:08:39.723Z,17.98
2018-03-23T05:09:39.731Z,18.04
2018-03-23T05:10:39.730Z,18.02
2018-03-23T05:11:39.718Z,18.04
2018-03-23T05:12:39.766Z,18.1
2018-03-23T05:13:39.712Z,18.05
2018-03-23T05:14:39.710Z,18.08
2018-03-23T05:15:39.755Z,18.11
2018-03-23T05:16:39.709Z,18.08
2018-03-23T05:17:39.743Z,18.12
2018-03-23T05:18:39.711Z,18.17
2018-03-23T05:19:39.745Z,18.16
2018-03-23T05:20:39.721Z,18.17
2018-03-23T05:21:39.740Z,18.22
2018-03-23T05:22:40.024Z,18.23
2018-03-23T05:23:39.729Z,18.23
2018-03-23T05:24:39.723Z,18.27
2018-03-23T05:25:39.739Z,18.28
2018-03-23T05:26:39.722Z,18.29
2018-03-23T05:27:39.745Z,18.33
2018-03-23T05:28:39.749Z,18.32
2018-03-23T05:29:39.699Z,18.34
2018-03-23T05:30:39.732Z,18.38
2018-03-23T05:31:39.964Z,18.39
2018-03-23T05:32:39.737Z,18.4
2018-03-23T05:33:39.738Z,18.45
2018-03-23T05:34:39.717Z,18.44
2018-03-23T05:35:39.715Z,18.45
2018-03-23T05:36:39.752Z,18.5
2018-03-23T05:37:39.770Z,18.49
2018-03-23T05:38:39.711Z,18.51
2018-03-23T05:39:39.710Z,18.57
2018-03-23T05:40:40.038Z,18.55
2018-03-23T05:41:39.723Z,18.56
2018-03-23T05:42:39.700Z,18.6
2018-03-23T05:43:39.714Z,18.6
2018-03-23T05:44:39.708Z,18.6
2018-03-23T05:45:39.731Z,18.66
2018-03-23T05:46:39.723Z,18.64
2018-03-23T05:47:39.718Z,18.66
2018-03-23T05:48:39.714Z,18.7
2018-03-23T05:49:39.724Z,18.69
2018-03-23T05:50:39.719Z,18.71
2018-03-23T05:51:39.715Z,18.76
2018-03-23T05:52:39.699Z,18.74
2018-03-23T05:53:39.691Z,18.75
2018-03-23T05:54:39.705Z,18.78
2018-03-23T05:55:39.711Z,18.78
2018-03-23T05:56:39.679Z,18.78
2018-03-23T05:57:39.703Z,18.84
2018-03-23T05:58:39.746Z,18.82
2018-03-23T05:59:39.717Z,18.83
2018-03-23T06:00:39.727Z,18.86
2018-03-23T06:01:39.712Z,18.86
2018-03-23T06:02:39.717Z,18.87
2018-03-23T06:03:39.742Z,18.9
2018-03-23T06:04:39.888Z,18.89
2018-03-23T06:05:39.697Z,18.9
2018-03-23T06:06:39.656Z,18.93
2018-03-23T06:07:39.671Z,18.94
2018-03-23T06:08:39.705Z,18.94
2018-03-23T06:09:39.725Z,18.97
2018-03-23T06:10:39.705Z,18.96
2018-03-23T06:11:39.663Z,18.96
2018-03-23T06:12:39.693Z,19.02
2018-03-23T06:13:39.710Z,19
2018-03-23T06:14:39.693Z,19
2018-03-23T06:15:39.709Z,19.03
2018-03-23T06:16:39.712Z,19.04
2018-03-23T06:17:39.806Z,19.04
2018-03-23T06:18:39.718Z,19.09
2018-03-23T06:19:39.715Z,19.09
2018-03-23T06:20:39.719Z,19.08
2018-03-23T06:21:39.727Z,19.11
2018-03-23T06:22:40.074Z,19.11
2018-03-23T06:23:39.703Z,19.11
2018-03-23T06:24:39.693Z,19.12
2018-03-23T06:25:39.729Z,19.14
2018-03-23T06:26:39.704Z,19.13
2018-03-23T06:27:39.728Z,19.15
2018-03-23T06:28:39.682Z,19.15
2018-03-23T06:29:39.704Z,19.16
2018-03-23T06:30:39.687Z,19.21
2018-03-23T06:31:39.690Z,19.18
2018-03-23T06:32:39.703Z,19.18
2018-03-23T06:33:39.690Z,19.22
2018-03-23T06:34:39.678Z,19.21
2018-03-23T06:35:39.714Z,19.21
2018-03-23T06:36:39.669Z,19.25
2018-03-23T06:37:39.710Z,19.21
2018-03-23T06:38:39.696Z,19.23
2018-03-23T06:39:39.700Z,19.27
2018-03-23T06:40:39.680Z,19.25
2018-03-23T06:41:39.680Z,19.25
2018-03-23T06:42:39.762Z,19.29
2018-03-23T06:43:39.701Z,19.27
2018-03-23T06:44:39.686Z,19.27
2018-03-23T06:45:39.702Z,19.32
2018-03-23T06:46:39.693Z,19.29
2018-03-23T06:47:39.676Z,19.29
2018-03-23T06:48:39.714Z,19.33
2018-03-23T06:49:39.718Z,19.3
2018-03-23T06:50:39.687Z,19.32
2018-03-23T06:51:39.669Z,19.35
2018-03-23T06:52:39.718Z,19.33
2018-03-23T06:53:39.676Z,19.33
2018-03-23T06:54:39.692Z,19.37
2018-03-23T06:55:39.933Z,19.36
2018-03-23T06:56:39.683Z,19.37
2018-03-23T06:57:39.677Z,19.39
2018-03-23T06:58:39.710Z,19.39
2018-03-23T06:59:39.714Z,19.39
2018-03-23T07:00:39.706Z,19.43
2018-03-23T07:01:39.716Z,19.4
2018-03-23T07:02:39.705Z,19.41
2018-03-23T07:03:39.676Z,19.45
2018-03-23T07:04:39.671Z,19.41
2018-03-23T07:05:39.688Z,19.44
2018-03-23T07:06:39.680Z,19.45
2018-03-23T07:07:39.670Z,19.41
2018-03-23T07:08:39.687Z,19.43
2018-03-23T07:09:39.699Z,19.4
2018-03-23T07:10:39.686Z,19.39
2018-03-23T07:11:39.676Z,19.38
2018-03-23T07:12:39.687Z,19.44
2018-03-23T07:13:39.692Z,19.41
2018-03-23T07:14:39.663Z,19.4
2018-03-23T07:15:39.688Z,19.42
2018-03-23T07:16:39.729Z,19.41
2018-03-23T07:17:39.684Z,19.32
2018-03-23T07:18:39.753Z,19.39
2018-03-23T07:19:39.689Z,19.39
2018-03-23T07:20:39.660Z,19.39
2018-03-23T07:21:39.729Z,19.45
2018-03-23T07:22:39.679Z,19.4
2018-03-23T07:23:39.677Z,19.35
2018-03-23T07:24:39.682Z,19.4
2018-03-23T07:25:39.684Z,19.39
2018-03-23T07:26:39.726Z,19.4
2018-03-23T07:27:39.696Z,19.44
2018-03-23T07:28:39.704Z,19.4
2018-03-23T07:29:39.691Z,19.43
2018-03-23T07:30:39.697Z,19.45
2018-03-23T07:31:39.714Z,19.43
2018-03-23T07:32:39.684Z,19.44
2018-03-23T07:33:39.697Z,19.46
2018-03-23T07:34:39.668Z,19.44
2018-03-23T07:35:39.679Z,19.44
2018-03-23T07:36:39.688Z,19.46
2018-03-23T07:37:40.022Z,19.43
2018-03-23T07:38:39.686Z,19.42
2018-03-23T07:39:39.688Z,19.47
2018-03-23T07:40:39.685Z,19.45
2018-03-23T07:41:39.669Z,19.46
2018-03-23T07:42:39.704Z,19.48
2018-03-23T07:43:39.671Z,19.44
2018-03-23T07:44:39.698Z,19.44
2018-03-23T07:45:39.682Z,19.48
2018-03-23T07:46:39.707Z,19.46
2018-03-23T07:47:39.673Z,19.45
2018-03-23T07:48:39.699Z,19.5
2018-03-23T07:49:39.690Z,19.44
2018-03-23T07:50:39.657Z,19.46
2018-03-23T07:51:39.695Z,19.5
2018-03-23T07:52:39.685Z,19.48
2018-03-23T07:53:39.688Z,19.48
2018-03-23T07:54:39.686Z,19.51
2018-03-23T07:55:39.672Z,19.45
2018-03-23T07:56:39.656Z,19.39
2018-03-23T07:57:39.686Z,19.47
2018-03-23T07:58:39.731Z,19.46
2018-03-23T07:59:39.674Z,19.45
2018-03-23T08:00:39.681Z,19.48
2018-03-23T08:01:39.717Z,19.47
2018-03-23T08:02:39.642Z,19.48
2018-03-23T08:03:39.643Z,19.54
2018-03-23T08:04:39.677Z,19.53
2018-03-23T08:05:39.659Z,19.51
2018-03-23T08:06:39.669Z,19.57
2018-03-23T08:07:39.691Z,19.54
2018-03-23T08:08:39.675Z,19.55
2018-03-23T08:09:39.656Z,19.6
2018-03-23T08:10:39.648Z,19.58
2018-03-23T08:11:39.665Z,19.58
2018-03-23T08:12:39.672Z,19.63
2018-03-23T08:13:39.680Z,19.61
2018-03-23T08:14:39.664Z,19.59
2018-03-23T08:15:39.653Z,19.63
2018-03-23T08:16:39.689Z,19.6
2018-03-23T08:17:39.663Z,19.6
2018-03-23T08:18:39.775Z,19.63
2018-03-23T08:19:39.695Z,19.62
2018-03-23T08:20:39.662Z,19.63
2018-03-23T08:21:39.691Z,19.68
2018-03-23T08:22:39.684Z,19.64
2018-03-23T08:23:39.639Z,19.64
2018-03-23T08:24:39.710Z,19.67
2018-03-23T08:25:39.667Z,19.65
2018-03-23T08:26:39.656Z,19.65
2018-03-23T08:27:39.689Z,19.69
2018-03-23T08:28:39.669Z,19.68
2018-03-23T08:29:39.669Z,19.68
2018-03-23T08:30:39.646Z,19.71
2018-03-23T08:31:39.673Z,19.68
2018-03-23T08:32:39.679Z,19.68
2018-03-23T08:33:39.649Z,19.73
2018-03-23T08:34:39.674Z,19.69
2018-03-23T08:35:39.648Z,19.69
2018-03-23T08:36:39.683Z,19.71
2018-03-23T08:37:39.700Z,19.7
2018-03-23T08:38:39.686Z,19.71
2018-03-23T08:39:39.646Z,19.75
2018-03-23T08:40:39.698Z,19.74
2018-03-23T08:41:39.656Z,19.73
2018-03-23T08:42:39.700Z,19.75
2018-03-23T08:43:39.687Z,19.73
2018-03-23T08:44:39.921Z,19.75
2018-03-23T08:45:39.670Z,19.75
2018-03-23T08:46:39.668Z,19.75
2018-03-23T08:47:39.968Z,19.75
2018-03-23T08:48:39.664Z,19.78
2018-03-23T08:49:39.669Z,19.76
2018-03-23T08:50:39.622Z,19.75
2018-03-23T08:51:39.633Z,19.78
2018-03-23T08:52:39.686Z,19.78
2018-03-23T08:53:39.640Z,19.77
2018-03-23T08:54:39.614Z,19.79
2018-03-23T08:55:39.632Z,19.78
2018-03-23T08:56:39.655Z,19.79
2018-03-23T08:57:39.753Z,19.81
2018-03-23T08:58:39.655Z,19.81
2018-03-23T08:59:39.642Z,19.79
2018-03-23T09:00:39.672Z,19.81
2018-03-23T09:01:39.646Z,19.78
2018-03-23T09:02:39.673Z,19.81
2018-03-23T09:03:39.669Z,19.83
2018-03-23T09:04:39.638Z,19.81
2018-03-23T09:05:39.694Z,19.81
2018-03-23T09:06:39.647Z,19.86
2018-03-23T09:07:39.654Z,19.83
2018-03-23T09:08:39.644Z,19.82
2018-03-23T09:09:40.094Z,19.88
2018-03-23T09:10:39.663Z,19.83
2018-03-23T09:11:39.621Z,19.84
2018-03-23T09:12:39.624Z,19.86
2018-03-23T09:13:39.648Z,19.85
2018-03-23T09:14:39.655Z,19.84
2018-03-23T09:15:39.655Z,19.88
2018-03-23T09:16:40.055Z,19.87
2018-03-23T09:17:39.665Z,19.87
2018-03-23T09:18:39.615Z,19.9
2018-03-23T09:19:39.647Z,19.89
2018-03-23T09:20:39.615Z,19.87
2018-03-23T09:21:39.641Z,19.89
2018-03-23T09:22:39.638Z,19.88
2018-03-23T09:23:39.691Z,19.88
2018-03-23T09:24:39.668Z,19.92
2018-03-23T09:25:39.627Z,19.9
2018-03-23T09:26:39.643Z,19.9
2018-03-23T09:27:39.628Z,19.93
2018-03-23T09:28:39.628Z,19.9
2018-03-23T09:29:39.632Z,19.91
2018-03-23T09:30:39.651Z,19.94
2018-03-23T09:31:39.658Z,19.93
2018-03-23T09:32:39.661Z,19.92
2018-03-23T09:33:39.650Z,19.95
2018-03-23T09:34:39.646Z,19.94
2018-03-23T09:35:39.623Z,19.92
2018-03-23T09:36:39.659Z,19.96
2018-03-23T09:37:39.640Z,19.94
2018-03-23T09:38:39.630Z,19.93
2018-03-23T09:39:39.668Z,19.98
2018-03-23T09:40:39.623Z,19.95
2018-03-23T09:41:39.649Z,19.94
2018-03-23T09:42:39.656Z,19.99
2018-03-23T09:43:39.621Z,19.98
2018-03-23T09:44:39.622Z,19.95
2018-03-23T09:45:39.605Z,19.99
2018-03-23T09:46:39.633Z,19.98
2018-03-23T09:47:39.628Z,19.96
2018-03-23T09:48:39.875Z,19.99
2018-03-23T09:49:39.673Z,19.98
2018-03-23T09:50:39.623Z,19.97
2018-03-23T09:51:39.670Z,20
2018-03-23T09:52:39.648Z,19.99
2018-03-23T09:53:39.638Z,19.97
2018-03-23T09:54:39.632Z,20
2018-03-23T09:55:39.633Z,19.97
2018-03-23T09:56:39.638Z,19.98
2018-03-23T09:57:39.677Z,20.02
2018-03-23T09:58:39.645Z,20
2018-03-23T09:59:39.616Z,20
2018-03-23T10:00:39.620Z,20.02
2018-03-23T10:01:39.625Z,19.99
2018-03-23T10:02:39.660Z,20
2018-03-23T10:03:39.912Z,20.02
2018-03-23T10:04:39.616Z,19.99
2018-03-23T10:05:39.612Z,19.99
2018-03-23T10:06:39.594Z,20.02
2018-03-23T10:07:39.674Z,19.98
2018-03-23T10:08:39.633Z,19.97
2018-03-23T10:09:39.631Z,20
2018-03-23T10:10:39.617Z,19.98
2018-03-23T10:11:39.620Z,20
2018-03-23T10:12:39.643Z,20
2018-03-23T10:13:39.662Z,20
2018-03-23T10:14:39.617Z,19.98
2018-03-23T10:15:39.649Z,20.02
2018-03-23T10:16:39.605Z,20
2018-03-23T10:17:39.630Z,20
2018-03-23T10:18:39.593Z,20.03
2018-03-23T10:19:39.709Z,20
2018-03-23T10:20:39.816Z,20
2018-03-23T10:21:39.909Z,20.03
2018-03-23T10:22:39.672Z,20
2018-03-23T10:23:39.624Z,19.99
2018-03-23T10:24:39.621Z,20.03
2018-03-23T10:25:39.633Z,19.99
2018-03-23T10:26:39.628Z,19.99
2018-03-23T10:27:39.624Z,20.04
2018-03-23T10:28:39.942Z,20.02
2018-03-23T10:29:39.622Z,20.01
2018-03-23T10:30:39.599Z,20.06
2018-03-23T10:31:39.632Z,20.01
2018-03-23T10:32:39.610Z,20.01
2018-03-23T10:33:39.768Z,20.05
2018-03-23T10:34:39.628Z,20
2018-03-23T10:35:39.632Z,20.01
2018-03-23T10:36:39.614Z,20.06
2018-03-23T10:37:39.636Z,20.03
2018-03-23T10:38:39.671Z,20.02
2018-03-23T10:39:39.648Z,20.06
2018-03-23T10:40:39.635Z,20.05
2018-03-23T10:41:39.617Z,20.06
2018-03-23T10:42:39.608Z,20.08
2018-03-23T10:43:39.613Z,20.05
2018-03-23T10:44:39.624Z,20.06
2018-03-23T10:45:39.632Z,20.06
2018-03-23T10:46:39.691Z,20.05
2018-03-23T10:47:39.602Z,20.06
2018-03-23T10:48:39.599Z,20.1
2018-03-23T10:49:39.615Z,20.06
2018-03-23T10:50:39.619Z,20.05
2018-03-23T10:51:39.628Z,20.08
2018-03-23T10:52:39.854Z,20.08
2018-03-23T10:53:39.608Z,20.06
2018-03-23T10:54:39.620Z,20.1
2018-03-23T10:55:39.625Z,20.09
2018-03-23T10:56:39.598Z,20.08
2018-03-23T10:57:39.582Z,20.11
2018-03-23T10:58:39.604Z,20.07
2018-03-23T10:59:39.605Z,20.06
2018-03-23T11:00:39.660Z,20.11
2018-03-23T11:01:39.605Z,20.09
2018-03-23T11:02:39.626Z,20.09
2018-03-23T11:03:39.647Z,20.11
2018-03-23T11:04:39.598Z,20.08
2018-03-23T11:05:39.595Z,20.07
2018-03-23T11:06:39.593Z,20.1
2018-03-23T11:07:39.592Z,20.07
2018-03-23T11:08:39.602Z,20.08
2018-03-23T11:09:39.629Z,20.12
2018-03-23T11:10:39.690Z,20.08
2018-03-23T11:11:39.618Z,20.09
2018-03-23T11:12:39.598Z,20.11
2018-03-23T11:13:39.613Z,20.08
2018-03-23T11:14:39.602Z,20.1
2018-03-23T11:15:39.591Z,20.11
2018-03-23T11:16:39.581Z,20.09
2018-03-23T11:17:39.594Z,20.08
2018-03-23T11:18:39.637Z,20.12
2018-03-23T11:19:39.597Z,20.1
2018-03-23T11:20:39.618Z,20.07
2018-03-23T11:21:39.588Z,20.12
2018-03-23T11:22:39.655Z,20.08
2018-03-23T11:23:39.610Z,20.06
2018-03-23T11:24:39.589Z,20.09
2018-03-23T11:25:39.583Z,20.09
2018-03-23T11:26:39.580Z,20.1
2018-03-23T11:27:39.562Z,20.13
2018-03-23T11:28:39.611Z,20.12
2018-03-23T11:29:39.636Z,20.08
2018-03-23T11:30:39.585Z,20.12
2018-03-23T11:31:39.559Z,20.11
2018-03-23T11:32:39.594Z,20.12
2018-03-23T11:33:39.598Z,20.12
2018-03-23T11:34:39.603Z,20.08
2018-03-23T11:35:39.591Z,20.1
2018-03-23T11:36:39.588Z,20.14
2018-03-23T11:37:39.584Z,20.12
2018-03-23T11:38:39.656Z,20.11
2018-03-23T11:39:39.585Z,20.13
2018-03-23T11:40:39.606Z,20.12
2018-03-23T11:41:39.583Z,20.12
2018-03-23T11:42:39.597Z,20.15
2018-03-23T11:43:39.605Z,20.14
2018-03-23T11:44:39.603Z,20.13
2018-03-23T11:45:39.581Z,20.16
2018-03-23T11:46:39.584Z,20.14
2018-03-23T11:47:39.596Z,20.04
2018-03-23T11:48:39.597Z,20.04
2018-03-23T11:49:39.596Z,20.01
2018-03-23T11:50:39.824Z,20.05
2018-03-23T11:51:39.583Z,20.12
2018-03-23T11:52:39.611Z,20.07
2018-03-23T11:53:39.597Z,20.08
2018-03-23T11:54:39.583Z,20.12
2018-03-23T11:55:39.598Z,20.1
2018-03-23T11:56:39.551Z,20.11
2018-03-23T11:57:39.634Z,20.16
2018-03-23T11:58:39.558Z,20.12
2018-03-23T11:59:39.594Z,20.12
2018-03-23T12:00:39.583Z,20.14
2018-03-23T12:01:39.571Z,20.15
2018-03-23T12:02:39.567Z,20.13
2018-03-23T12:03:39.570Z,20.17
2018-03-23T12:04:39.584Z,20.13
2018-03-23T12:05:39.610Z,20.13
2018-03-23T12:06:39.613Z,20.18
2018-03-23T12:07:39.581Z,20.15
2018-03-23T12:08:39.597Z,20.15
2018-03-23T12:09:39.595Z,20.18
2018-03-23T12:10:39.614Z,20.14
2018-03-23T12:11:39.588Z,20.15
2018-03-23T12:12:39.589Z,20.18
2018-03-23T12:13:39.557Z,20.16
2018-03-23T12:14:39.582Z,20.15
2018-03-23T12:15:39.614Z,20.17
2018-03-23T12:16:39.637Z,20.15
2018-03-23T12:17:39.605Z,20.15
2018-03-23T12:18:39.699Z,20.18
2018-03-23T12:19:39.582Z,20.16
2018-03-23T12:20:39.867Z,20.15
2018-03-23T12:21:39.639Z,20.18
2018-03-23T12:22:39.582Z,20.16
2018-03-23T12:23:39.582Z,20.15
2018-03-23T12:24:39.627Z,20.17
2018-03-23T12:25:39.580Z,20.16
2018-03-23T12:26:39.550Z,20.16
2018-03-23T12:27:39.587Z,20.19
2018-03-23T12:28:39.585Z,20.16
2018-03-23T12:29:39.567Z,20.18
2018-03-23T12:30:39.617Z,20.19
2018-03-23T12:31:39.590Z,20.17
2018-03-23T12:32:39.568Z,20.18
2018-03-23T12:33:39.583Z,20.19
2018-03-23T12:34:39.596Z,20.17
2018-03-23T12:35:39.568Z,20.18
2018-03-23T12:36:39.578Z,20.19
2018-03-23T12:37:39.591Z,20.18
2018-03-23T12:38:39.573Z,20.15
2018-03-23T12:39:39.582Z,20.19
2018-03-23T12:40:39.602Z,20.16
2018-03-23T12:41:39.569Z,20.16
2018-03-23T12:42:39.568Z,20.18
2018-03-23T12:43:40.042Z,20.18
2018-03-23T12:44:39.589Z,20.18
2018-03-23T12:45:39.987Z,20.19
2018-03-23T12:46:39.617Z,20.18
2018-03-23T12:47:39.598Z,20.18
2018-03-23T12:48:39.564Z,20.19
2018-03-23T12:49:39.581Z,20.17
2018-03-23T12:50:39.570Z,20.16
2018-03-23T12:51:39.574Z,20.18
2018-03-23T12:52:39.562Z,20.16
2018-03-23T12:53:39.572Z,20.16
2018-03-23T12:54:39.574Z,20.2
2018-03-23T12:55:39.577Z,20.18
2018-03-23T12:56:39.584Z,20.17